createdAt,value
2018-10-07T00:01:07.418Z,55.50
2018-10-07T00:06:04.978Z,50.73
2018-10-07T00:11:02.450Z,55.03
2018-10-07T00:15:59.919Z,54.00
2018-10-07T00:20:57.483Z,54.73
2018-10-07T00:25:55.006Z,55.10
2018-10-07T00:30:52.510Z,56.40
2018-10-07T00:35:49.957Z,50.73
2018-10-07T00:40:47.435Z,53.77
2018-10-07T00:45:44.902Z,52.63
2018-10-07T00:50:42.376Z,46.83
2018-10-07T00:55:39.855Z,57.60
2018-10-07T01:00:37.349Z,53.57
2018-10-07T01:05:34.825Z,56.33
2018-10-07T01:10:32.341Z,53.20
2018-10-07T01:15:29.811Z,52.00
2018-10-07T01:20:27.306Z,59.30
2018-10-07T01:25:24.763Z,62.80
2018-10-07T01:30:23.073Z,57.83
2018-10-07T01:35:20.603Z,67.90
2018-10-07T01:40:18.214Z,70.17
2018-10-07T01:45:15.882Z,70.20
2018-10-07T01:50:14.527Z,70.60
2018-10-07T01:55:12.005Z,59.60
2018-10-07T02:00:09.553Z,80.33
2018-10-07T02:05:07.085Z,71.23
2018-10-07T02:10:04.561Z,63.13
2018-10-07T02:15:02.087Z,69.60
2018-10-07T02:20:00.762Z,69.83
2018-10-07T02:24:58.225Z,59.33
2018-10-07T02:29:55.708Z,66.30
2018-10-07T02:34:53.178Z,57.23
2018-10-07T02:39:50.657Z,48.67
2018-10-07T02:44:48.113Z,41.00
2018-10-07T02:49:52.381Z,36.70
2018-10-07T02:54:49.882Z,32.20
2018-10-07T02:59:48.320Z,21.10
2018-10-07T03:04:45.905Z,30.33
2018-10-07T03:09:43.408Z,20.50
2018-10-07T03:14:40.914Z,26.60
2018-10-07T03:19:41.794Z,19.70
2018-10-07T03:24:39.280Z,18.87
2018-10-07T03:29:36.847Z,18.70
2018-10-07T03:34:34.249Z,19.10
2018-10-07T03:39:31.705Z,18.00
2018-10-07T03:44:29.179Z,21.00
2018-10-07T03:49:33.964Z,17.50
2018-10-07T03:54:31.482Z,17.60
2018-10-07T03:59:28.952Z,11.47
2018-10-07T04:04:26.676Z,6.00
2018-10-07T04:09:24.190Z,5.27
2018-10-07T04:14:21.674Z,7.70
2018-10-07T04:19:28.774Z,6.50
2018-10-07T04:24:28.309Z,7.00
2018-10-07T04:29:25.969Z,4.30
2018-10-07T04:34:23.445Z,4.40
2018-10-07T04:39:20.937Z,4.30
2018-10-07T04:44:18.451Z,4.60
2018-10-07T04:49:19.668Z,4.30
2018-10-07T04:54:17.206Z,3.97
2018-10-07T04:59:14.698Z,3.67
2018-10-07T05:04:12.173Z,4.97
2018-10-07T05:09:10.750Z,3.47
2018-10-07T05:14:08.949Z,2.67
2018-10-07T05:19:09.738Z,4.50
2018-10-07T05:24:07.294Z,4.53
2018-10-07T05:29:05.113Z,4.67
2018-10-07T05:34:02.776Z,3.90
2018-10-07T05:39:00.325Z,4.40
2018-10-07T05:43:57.832Z,4.17
2018-10-07T05:48:55.345Z,4.60
2018-10-07T05:53:52.840Z,5.60
2018-10-07T05:58:51.751Z,4.80
2018-10-07T06:04:25.175Z,4.80
2018-10-07T06:09:26.205Z,4.80
2018-10-07T06:14:35.132Z,6.03
2018-10-07T06:19:34.748Z,6.87
2018-10-07T06:24:32.849Z,5.50
2018-10-07T06:29:30.373Z,5.17
2018-10-07T06:34:27.901Z,5.07
2018-10-07T06:39:25.449Z,4.70
2018-10-07T06:44:22.997Z,5.80
2018-10-07T06:49:25.793Z,4.33
2018-10-07T06:54:23.481Z,4.70
2018-10-07T06:59:20.990Z,3.43
2018-10-07T07:04:18.621Z,4.10
2018-10-07T07:09:16.115Z,4.00
2018-10-07T07:14:15.472Z,3.40
2018-10-07T07:19:14.408Z,2.87
2018-10-07T07:24:11.963Z,3.03
2018-10-07T07:29:09.499Z,2.10
2018-10-07T07:34:07.219Z,1.73
2018-10-07T07:39:05.741Z,1.73
2018-10-07T07:44:03.233Z,1.20
2018-10-07T07:49:00.769Z,1.27
2018-10-07T07:53:58.225Z,1.10
2018-10-07T07:58:55.722Z,0.70
2018-10-07T08:03:53.200Z,1.23
2018-10-07T08:08:50.769Z,1.30
2018-10-07T08:13:48.264Z,0.80
2018-10-07T08:18:45.825Z,0.60
2018-10-07T08:23:43.372Z,0.93
2018-10-07T08:28:40.829Z,0.70
2018-10-07T08:33:38.338Z,0.60
2018-10-07T08:38:35.858Z,0.70
2018-10-07T08:43:33.353Z,0.70
2018-10-07T08:48:30.848Z,0.50
2018-10-07T08:53:28.387Z,0.47
2018-10-07T08:58:25.905Z,0.53
2018-10-07T09:03:23.392Z,0.50
2018-10-07T09:08:20.880Z,0.50
2018-10-07T09:13:18.569Z,0.60
2018-10-07T09:18:16.098Z,0.60
2018-10-07T09:23:13.611Z,0.60
2018-10-07T09:28:11.158Z,0.40
2018-10-07T09:33:08.703Z,0.67
2018-10-07T09:38:06.197Z,0.70
2018-10-07T09:43:03.687Z,0.70
2018-10-07T09:48:01.287Z,0.70
2018-10-07T09:52:58.797Z,0.70
2018-10-07T09:57:56.558Z,0.60
2018-10-07T10:02:54.120Z,0.50
2018-10-07T10:07:51.650Z,0.70
2018-10-07T10:12:49.195Z,0.50
2018-10-07T10:17:48.840Z,0.40
2018-10-07T10:22:59.824Z,0.60
2018-10-07T10:28:12.934Z,0.40
2018-10-07T10:33:22.548Z,0.80
2018-10-07T10:38:43.529Z,0.60
2018-10-07T10:43:56.197Z,0.50
2018-10-07T10:50:09.867Z,0.60
2018-10-07T10:55:27.269Z,0.60
2018-10-07T11:00:27.894Z,0.50
2018-10-07T11:05:34.708Z,0.50
2018-10-07T11:10:42.515Z,0.70
2018-10-07T11:15:44.831Z,0.70
2018-10-07T11:20:56.292Z,0.47
2018-10-07T11:26:07.412Z,0.60
2018-10-07T11:33:27.492Z,0.73
2018-10-07T11:39:48.874Z,0.60
2018-10-07T11:44:56.823Z,0.77
2018-10-07T11:50:06.551Z,0.67
2018-10-07T11:55:05.578Z,0.60
2018-10-07T12:00:06.523Z,0.40
2018-10-07T12:05:08.976Z,1.10
2018-10-07T12:10:08.797Z,0.57
2018-10-07T12:15:13.127Z,0.90
2018-10-07T12:20:19.996Z,0.70
2018-10-07T12:25:18.336Z,0.50
2018-10-07T12:30:16.788Z,0.60
2018-10-07T12:35:16.520Z,0.87
2018-10-07T12:40:15.383Z,0.97
2018-10-07T12:45:14.038Z,0.53
2018-10-07T12:50:12.861Z,0.50
2018-10-07T12:55:10.451Z,0.63
2018-10-07T13:00:08.146Z,0.50
2018-10-07T13:05:07.082Z,0.70
2018-10-07T13:10:05.607Z,0.70
2018-10-07T13:15:03.391Z,0.50
2018-10-07T13:20:07.467Z,0.90
2018-10-07T13:25:06.133Z,0.80
2018-10-07T13:30:06.237Z,0.90
2018-10-07T13:35:06.084Z,0.90
2018-10-07T13:40:08.827Z,0.93
2018-10-07T13:45:07.876Z,0.70
2018-10-07T13:50:10.081Z,0.73
2018-10-07T13:55:07.683Z,1.00
2018-10-07T14:00:05.362Z,1.20
2018-10-07T14:05:02.948Z,0.70
2018-10-07T14:10:00.582Z,0.97
2018-10-07T14:14:58.090Z,0.57
2018-10-07T14:19:58.479Z,0.70
2018-10-07T14:24:56.010Z,1.03
2018-10-07T14:29:53.600Z,0.77
2018-10-07T14:34:51.134Z,0.93
2018-10-07T14:39:48.757Z,0.77
2018-10-07T14:44:46.294Z,0.90
2018-10-07T14:49:53.108Z,0.67
2018-10-07T14:54:50.708Z,0.67
2018-10-07T14:59:48.261Z,0.70
2018-10-07T15:04:45.843Z,0.80
2018-10-07T15:09:43.386Z,0.60
2018-10-07T15:14:41.019Z,0.50
2018-10-07T15:19:44.714Z,0.83
2018-10-07T15:24:42.450Z,0.73
2018-10-07T15:29:40.187Z,1.10
2018-10-07T15:34:37.785Z,0.97
2018-10-07T15:39:35.379Z,0.70
2018-10-07T15:44:32.897Z,1.20
2018-10-07T15:49:40.910Z,0.87
2018-10-07T15:54:39.254Z,0.87
2018-10-07T15:59:36.919Z,0.80
2018-10-07T16:04:37.636Z,1.03
2018-10-07T16:09:36.638Z,1.00
2018-10-07T16:14:34.378Z,0.80
2018-10-07T16:19:34.929Z,1.07
2018-10-07T16:24:33.924Z,0.97
2018-10-07T16:29:34.579Z,1.30
2018-10-07T16:34:32.910Z,0.83
2018-10-07T16:39:30.502Z,0.90
2018-10-07T16:44:28.257Z,1.27
2018-10-07T16:49:26.837Z,1.27
2018-10-07T16:54:25.145Z,1.57
2018-10-07T16:59:22.741Z,1.17
2018-10-07T17:04:20.345Z,1.00
2018-10-07T17:09:17.911Z,1.50
2018-10-07T17:14:15.759Z,1.40
2018-10-07T17:19:16.132Z,1.33
2018-10-07T17:24:13.704Z,2.17
2018-10-07T17:29:11.277Z,1.53
2018-10-07T17:34:08.765Z,1.60
2018-10-07T17:39:07.963Z,1.23
2018-10-07T17:44:05.632Z,1.70
2018-10-07T17:49:03.376Z,1.97
2018-10-07T17:54:00.762Z,2.53
2018-10-07T17:58:58.378Z,2.17
2018-10-07T18:03:55.893Z,1.93
2018-10-07T18:08:54.830Z,3.50
2018-10-07T18:13:52.392Z,2.60
2018-10-07T18:18:53.579Z,2.27
2018-10-07T18:23:51.288Z,2.70
2018-10-07T18:28:48.837Z,2.83
2018-10-07T18:33:46.414Z,3.17
2018-10-07T18:38:43.893Z,3.40
2018-10-07T18:43:41.450Z,2.77
2018-10-07T18:48:39.005Z,2.73
2018-10-07T18:53:36.681Z,2.50
2018-10-07T18:58:34.264Z,2.30
2018-10-07T19:03:32.078Z,4.10
2018-10-07T19:08:32.591Z,2.77
2018-10-07T19:13:33.489Z,2.80
2018-10-07T19:18:31.109Z,3.47
2018-10-07T19:23:28.605Z,2.90
2018-10-07T19:28:26.133Z,3.50
2018-10-07T19:33:23.692Z,3.80
2018-10-07T19:38:21.289Z,3.77
2018-10-07T19:43:18.777Z,3.67
2018-10-07T19:48:16.257Z,3.20
2018-10-07T19:53:13.734Z,3.80
2018-10-07T19:58:11.314Z,3.80
2018-10-07T20:03:08.785Z,2.50
2018-10-07T20:08:06.290Z,2.77
2018-10-07T20:13:03.889Z,3.00
2018-10-07T20:18:01.431Z,3.10
2018-10-07T20:22:58.898Z,3.20
2018-10-07T20:27:56.402Z,3.30
2018-10-07T20:32:53.966Z,2.80
2018-10-07T20:37:52.703Z,2.50
2018-10-07T20:42:50.405Z,2.23
2018-10-07T20:47:48.037Z,2.10
2018-10-07T20:52:45.723Z,1.90
2018-10-07T20:57:43.449Z,2.90
2018-10-07T21:02:41.046Z,2.50
2018-10-07T21:07:38.552Z,2.60
2018-10-07T21:12:36.051Z,2.37
2018-10-07T21:17:33.565Z,3.00
2018-10-07T21:22:31.512Z,2.23
2018-10-07T21:27:29.000Z,2.80
2018-10-07T21:32:26.486Z,2.00
2018-10-07T21:37:24.014Z,3.00
2018-10-07T21:42:21.453Z,2.37
2018-10-07T21:47:18.925Z,2.23
2018-10-07T21:52:16.400Z,2.07
2018-10-07T21:57:13.885Z,2.93
2018-10-07T22:02:11.369Z,2.40
2018-10-07T22:07:08.845Z,1.90
2018-10-07T22:12:06.346Z,2.23
2018-10-07T22:17:03.931Z,2.40
2018-10-07T22:22:01.416Z,2.80
2018-10-07T22:26:58.873Z,4.03
2018-10-07T22:31:56.343Z,2.07
2018-10-07T22:36:53.822Z,3.40
2018-10-07T22:41:51.293Z,2.30
2018-10-07T22:46:48.791Z,2.60
2018-10-07T22:51:46.336Z,2.33
2018-10-07T22:56:43.840Z,2.47
2018-10-07T23:01:41.335Z,2.73
2018-10-07T23:06:38.809Z,2.47
2018-10-07T23:11:36.279Z,2.67
2018-10-07T23:16:33.768Z,2.43
2018-10-07T23:21:31.224Z,2.30
2018-10-07T23:26:28.669Z,2.43
2018-10-07T23:31:26.144Z,2.60
2018-10-07T23:36:23.716Z,3.37
2018-10-07T23:41:21.254Z,2.03
2018-10-07T23:46:18.742Z,2.10
2018-10-07T23:51:16.250Z,2.27
2018-10-07T23:56:13.779Z,1.93
